createdAt,value
2022-10-18T00:02:46.797Z,8.88
2022-10-18T00:05:50.007Z,8.80
2022-10-18T00:08:52.517Z,8.64
2022-10-18T00:11:55.414Z,8.71
2022-10-18T00:14:57.796Z,8.83
2022-10-18T00:18:00.187Z,8.50
2022-10-18T00:21:22.795Z,8.58
2022-10-18T00:24:25.171Z,8.53
2022-10-18T00:27:29.712Z,8.56
2022-10-18T00:30:32.192Z,8.52
2022-10-18T00:33:34.557Z,8.65
2022-10-18T00:36:37.014Z,8.64
2022-10-18T00:39:39.509Z,8.68
2022-10-18T00:42:41.834Z,8.82
2022-10-18T00:45:44.325Z,8.58
2022-10-18T00:48:46.762Z,8.38
2022-10-18T00:52:11.820Z,8.63
2022-10-18T00:55:14.311Z,8.35
2022-10-18T00:58:17.490Z,8.18
2022-10-18T01:01:22.269Z,8.02
2022-10-18T01:04:27.086Z,8.03
2022-10-18T01:07:35.516Z,7.79
2022-10-18T01:10:47.831Z,8.01
2022-10-18T01:14:11.234Z,8.11
2022-10-18T01:17:19.338Z,8.21
2022-10-18T01:20:55.752Z,8.25
2022-10-18T01:24:16.443Z,8.22
2022-10-18T01:27:24.504Z,8.18
2022-10-18T01:30:33.529Z,8.14
2022-10-18T01:33:43.193Z,8.09
2022-10-18T01:36:51.312Z,8.17
2022-10-18T01:39:55.208Z,8.17
2022-10-18T01:42:57.629Z,8.24
2022-10-18T01:46:00.702Z,8.21
2022-10-18T01:49:04.204Z,8.20
2022-10-18T01:55:14.548Z,8.18
2022-10-18T01:58:26.102Z,8.22
2022-10-18T02:01:37.615Z,8.27
2022-10-18T02:04:59.067Z,8.31
2022-10-18T02:08:23.758Z,8.30
2022-10-18T02:11:28.164Z,8.09
2022-10-18T02:14:30.851Z,7.99
2022-10-18T02:17:33.512Z,8.09
2022-10-18T02:20:36.680Z,7.97
2022-10-18T02:23:39.221Z,7.87
2022-10-18T02:26:42.110Z,7.93
2022-10-18T02:29:44.680Z,8.04
2022-10-18T02:32:58.784Z,7.89
2022-10-18T02:36:06.572Z,7.92
2022-10-18T02:39:16.566Z,7.79
2022-10-18T02:42:18.955Z,7.96
2022-10-18T02:45:21.428Z,7.89
2022-10-18T02:48:23.870Z,7.81
2022-10-18T02:51:26.248Z,7.81
2022-10-18T02:54:28.741Z,7.78
2022-10-18T02:57:31.462Z,7.42
2022-10-18T03:00:34.228Z,7.60
2022-10-18T03:03:36.561Z,7.57
2022-10-18T03:06:38.979Z,7.65
2022-10-18T03:09:41.335Z,7.57
2022-10-18T03:12:43.667Z,7.63
2022-10-18T03:15:47.924Z,7.67
2022-10-18T03:18:50.326Z,7.62
2022-10-18T03:21:52.729Z,7.52
2022-10-18T03:24:55.116Z,7.60
2022-10-18T03:27:57.471Z,7.50
2022-10-18T03:31:02.097Z,7.54
2022-10-18T03:34:04.840Z,7.62
2022-10-18T03:37:07.221Z,7.65
2022-10-18T03:40:10.177Z,7.57
2022-10-18T03:43:13.125Z,7.45
2022-10-18T03:46:15.567Z,7.45
2022-10-18T03:49:17.907Z,7.36
2022-10-18T03:52:20.267Z,7.28
2022-10-18T03:55:22.640Z,7.35
2022-10-18T03:58:25.192Z,7.18
2022-10-18T04:01:27.746Z,7.01
2022-10-18T04:04:30.159Z,6.96
2022-10-18T04:07:32.562Z,6.84
2022-10-18T04:10:37.587Z,7.01
2022-10-18T04:13:40.155Z,7.02
2022-10-18T04:16:42.567Z,7.04
2022-10-18T04:19:44.980Z,6.88
2022-10-18T04:22:48.454Z,6.87
2022-10-18T04:25:50.826Z,6.80
2022-10-18T04:28:53.299Z,6.68
2022-10-18T04:31:55.784Z,6.75
2022-10-18T04:34:58.172Z,6.72
2022-10-18T04:38:00.529Z,6.70
2022-10-18T04:41:04.160Z,6.73
2022-10-18T04:44:06.541Z,6.77
2022-10-18T04:47:08.917Z,6.67
2022-10-18T04:50:11.239Z,6.70
2022-10-18T04:53:13.613Z,6.52
2022-10-18T04:56:16.716Z,6.38
2022-10-18T04:59:19.288Z,6.18
2022-10-18T05:02:21.929Z,6.14
2022-10-18T05:05:27.031Z,6.03
2022-10-18T05:08:36.523Z,6.05
2022-10-18T05:11:39.039Z,6.12
2022-10-18T05:14:41.737Z,6.30
2022-10-18T05:17:44.228Z,6.32
2022-10-18T05:20:47.005Z,6.39
2022-10-18T05:23:49.409Z,6.40
2022-10-18T05:26:51.771Z,6.51
2022-10-18T05:29:54.140Z,6.47
2022-10-18T05:32:56.456Z,6.58
2022-10-18T05:35:59.171Z,6.70
2022-10-18T05:39:05.262Z,6.89
2022-10-18T05:42:08.728Z,6.92
2022-10-18T05:45:11.108Z,6.99
2022-10-18T05:48:13.460Z,7.16
2022-10-18T05:51:15.880Z,7.11
2022-10-18T05:54:18.311Z,7.28
2022-10-18T05:57:20.743Z,7.47
2022-10-18T06:00:23.143Z,7.56
2022-10-18T06:03:27.494Z,7.80
2022-10-18T06:06:30.960Z,7.89
2022-10-18T06:09:33.417Z,8.04
2022-10-18T06:12:35.816Z,8.14
2022-10-18T06:15:38.186Z,8.37
2022-10-18T06:18:41.032Z,8.52
2022-10-18T06:21:43.833Z,8.75
2022-10-18T06:24:46.153Z,8.95
2022-10-18T06:27:48.490Z,9.01
2022-10-18T06:30:50.963Z,9.23
2022-10-18T06:33:53.264Z,9.40
2022-10-18T06:36:56.544Z,9.44
2022-10-18T06:40:01.043Z,9.56
2022-10-18T06:43:20.535Z,9.44
2022-10-18T06:46:24.116Z,9.41
2022-10-18T06:49:26.421Z,9.62
2022-10-18T06:52:29.629Z,9.58
2022-10-18T06:55:32.411Z,9.61
2022-10-18T06:58:35.507Z,9.70
2022-10-18T07:01:38.235Z,9.98
2022-10-18T07:04:40.669Z,10.21
2022-10-18T07:07:42.988Z,10.34
2022-10-18T07:10:53.137Z,10.61
2022-10-18T07:14:02.289Z,10.63
2022-10-18T07:17:04.699Z,10.52
2022-10-18T07:20:07.586Z,10.76
2022-10-18T07:23:11.640Z,10.91
2022-10-18T07:26:16.968Z,10.94
2022-10-18T07:29:19.387Z,11.13
2022-10-18T07:32:21.920Z,11.26
2022-10-18T07:35:24.335Z,11.50
2022-10-18T07:38:26.677Z,11.79
2022-10-18T07:41:29.995Z,11.80
2022-10-18T07:44:32.374Z,11.87
2022-10-18T07:47:35.374Z,11.68
2022-10-18T07:50:38.042Z,12.19
2022-10-18T07:53:40.798Z,12.42
2022-10-18T07:56:43.171Z,12.66
2022-10-18T07:59:48.020Z,12.67
2022-10-18T08:02:56.452Z,12.94
2022-10-18T08:05:58.915Z,12.94
2022-10-18T08:09:01.576Z,12.98
2022-10-18T08:12:06.673Z,13.13
2022-10-18T08:15:09.350Z,13.27
2022-10-18T08:18:11.884Z,13.47
2022-10-18T08:21:15.787Z,13.85
2022-10-18T08:24:18.122Z,14.15
2022-10-18T08:27:20.623Z,13.96
2022-10-18T08:30:26.049Z,13.90
2022-10-18T08:33:28.390Z,14.02
2022-10-18T08:36:30.759Z,14.13
2022-10-18T08:39:33.253Z,14.41
2022-10-18T08:43:03.158Z,14.37
2022-10-18T08:46:05.572Z,14.46
2022-10-18T08:49:15.566Z,14.82
2022-10-18T08:52:34.733Z,15.09
2022-10-18T08:55:41.301Z,15.36
2022-10-18T08:58:44.409Z,15.43
2022-10-18T09:01:49.693Z,15.60
2022-10-18T09:05:14.503Z,15.83
2022-10-18T09:08:20.282Z,15.85
2022-10-18T09:11:41.999Z,15.98
2022-10-18T09:14:47.388Z,15.91
2022-10-18T09:18:20.477Z,16.14
2022-10-18T09:21:35.314Z,16.24
2022-10-18T09:24:40.727Z,16.23
2022-10-18T09:27:54.521Z,16.14
2022-10-18T09:31:16.753Z,16.54
2022-10-18T09:34:33.512Z,16.80
2022-10-18T09:37:36.087Z,16.99
2022-10-18T09:40:47.177Z,16.97
2022-10-18T09:43:57.336Z,17.00
2022-10-18T09:47:16.511Z,17.16
2022-10-18T09:50:36.866Z,17.26
2022-10-18T09:54:20.948Z,16.87
2022-10-18T09:57:32.068Z,16.96
2022-10-18T10:00:39.218Z,17.33
2022-10-18T10:03:44.808Z,17.64
2022-10-18T10:06:52.110Z,17.69
2022-10-18T10:10:08.930Z,17.88
2022-10-18T10:13:22.883Z,17.87
2022-10-18T10:16:26.795Z,17.95
2022-10-18T10:19:32.623Z,18.00
2022-10-18T10:22:39.419Z,17.97
2022-10-18T10:25:42.642Z,18.20
2022-10-18T10:28:48.649Z,18.23
2022-10-18T10:32:04.011Z,18.41
2022-10-18T10:35:34.059Z,18.35
2022-10-18T10:38:44.866Z,18.45
2022-10-18T10:41:49.098Z,18.48
2022-10-18T10:44:54.606Z,18.66
2022-10-18T10:48:22.767Z,18.65
2022-10-18T10:51:28.233Z,18.63
2022-10-18T10:54:36.467Z,18.68
2022-10-18T10:57:38.906Z,18.87
2022-10-18T11:00:44.146Z,18.95
2022-10-18T11:03:48.667Z,18.84
2022-10-18T11:06:58.017Z,18.83
2022-10-18T11:10:08.376Z,19.03
2022-10-18T11:13:37.000Z,19.04
2022-10-18T11:17:14.644Z,18.98
2022-10-18T11:20:29.918Z,19.24
2022-10-18T11:23:33.652Z,19.27
2022-10-18T11:26:53.454Z,19.23
2022-10-18T11:30:31.459Z,19.38
2022-10-18T11:34:14.552Z,19.55
2022-10-18T11:37:28.561Z,19.73
2022-10-18T11:40:42.745Z,19.60
2022-10-18T11:44:03.164Z,19.60
2022-10-18T11:47:12.044Z,19.74
2022-10-18T11:50:37.816Z,19.54
2022-10-18T11:53:58.757Z,19.70
2022-10-18T11:57:38.687Z,19.75
2022-10-18T12:01:07.404Z,19.71
2022-10-18T12:04:17.892Z,19.96
2022-10-18T12:07:26.793Z,19.94
2022-10-18T12:10:46.044Z,20.04
2022-10-18T12:14:01.253Z,20.06
2022-10-18T12:17:39.843Z,20.05
2022-10-18T12:20:42.508Z,20.44
2022-10-18T12:23:51.627Z,21.53
2022-10-18T12:27:00.812Z,21.94
2022-10-18T12:30:07.532Z,22.27
2022-10-18T12:33:28.824Z,22.63
2022-10-18T12:36:43.536Z,22.71
2022-10-18T12:40:21.695Z,22.77
2022-10-18T12:43:23.144Z,22.92
2022-10-18T12:46:43.392Z,23.05
2022-10-18T12:49:55.981Z,23.03
2022-10-18T12:53:03.832Z,23.23
2022-10-18T12:56:28.144Z,23.35
2022-10-18T12:59:30.434Z,23.84
2022-10-18T13:02:33.124Z,23.41
2022-10-18T13:05:56.220Z,23.56
2022-10-18T13:09:19.952Z,23.30
2022-10-18T13:12:22.249Z,23.47
2022-10-18T13:15:40.848Z,23.48
2022-10-18T13:18:58.438Z,23.78
2022-10-18T13:22:15.189Z,23.84
2022-10-18T13:25:51.550Z,23.98
2022-10-18T13:29:09.648Z,24.29
2022-10-18T13:32:27.612Z,23.68
2022-10-18T13:35:55.841Z,23.90
2022-10-18T13:39:02.486Z,23.70
2022-10-18T13:42:14.121Z,23.65
2022-10-18T13:45:44.578Z,23.59
2022-10-18T13:48:54.676Z,23.75
2022-10-18T13:52:12.377Z,23.92
2022-10-18T13:55:52.105Z,24.05
2022-10-18T13:59:33.517Z,23.70
2022-10-18T14:03:02.564Z,23.24
2022-10-18T14:06:28.575Z,23.33
2022-10-18T14:09:52.350Z,23.40
2022-10-18T14:12:58.481Z,23.55
2022-10-18T14:16:07.309Z,23.34
2022-10-18T14:19:29.620Z,23.41
2022-10-18T14:22:32.062Z,23.18
2022-10-18T14:25:36.233Z,23.30
2022-10-18T14:28:58.491Z,23.38
2022-10-18T14:32:00.979Z,23.54
2022-10-18T14:38:26.328Z,23.28
2022-10-18T14:41:29.979Z,22.74
2022-10-18T14:44:32.370Z,22.64
2022-10-18T14:47:37.293Z,22.37
2022-10-18T14:50:40.308Z,22.44
2022-10-18T14:53:43.032Z,22.42
2022-10-18T14:56:45.719Z,21.86
2022-10-18T14:59:56.935Z,21.62
2022-10-18T15:02:59.314Z,21.26
2022-10-18T15:06:05.107Z,21.10
2022-10-18T15:09:07.538Z,20.90
2022-10-18T15:12:12.972Z,20.59
2022-10-18T15:15:21.431Z,20.23
2022-10-18T15:18:25.723Z,19.35
2022-10-18T15:21:28.264Z,18.52
2022-10-18T15:24:36.500Z,17.94
2022-10-18T15:27:39.768Z,17.64
2022-10-18T15:30:43.122Z,17.47
2022-10-18T15:33:45.736Z,17.10
2022-10-18T15:36:50.722Z,16.93
2022-10-18T15:40:24.163Z,16.82
2022-10-18T15:43:26.523Z,16.68
2022-10-18T15:46:32.003Z,16.50
2022-10-18T15:49:47.632Z,16.39
2022-10-18T15:52:50.155Z,16.17
2022-10-18T15:56:00.334Z,16.06
2022-10-18T15:59:06.647Z,16.01
2022-10-18T16:02:12.812Z,15.78
2022-10-18T16:05:20.838Z,15.80
2022-10-18T16:08:25.502Z,15.67
2022-10-18T16:11:28.420Z,15.64
2022-10-18T16:14:30.942Z,15.53
2022-10-18T16:17:33.572Z,15.42
2022-10-18T16:20:36.336Z,15.43
2022-10-18T16:23:38.680Z,15.21
2022-10-18T16:26:41.439Z,15.11
2022-10-18T16:29:43.763Z,15.02
2022-10-18T16:32:46.622Z,14.84
2022-10-18T16:35:49.506Z,14.93
2022-10-18T16:38:52.041Z,14.91
2022-10-18T16:41:54.523Z,14.82
2022-10-18T16:44:58.592Z,14.95
2022-10-18T16:48:00.922Z,14.96
2022-10-18T16:51:03.893Z,14.89
2022-10-18T16:54:06.241Z,14.67
2022-10-18T16:57:11.680Z,14.68
2022-10-18T17:00:18.707Z,14.62
2022-10-18T17:03:21.422Z,14.78
2022-10-18T17:06:29.379Z,14.84
2022-10-18T17:09:31.828Z,14.74
2022-10-18T17:12:34.460Z,14.61
2022-10-18T17:15:37.122Z,14.73
2022-10-18T17:18:39.487Z,14.89
2022-10-18T17:21:42.443Z,14.92
2022-10-18T17:24:44.931Z,15.05
2022-10-18T17:27:47.312Z,14.93
2022-10-18T17:30:56.652Z,14.88
2022-10-18T17:34:01.488Z,14.92
2022-10-18T17:37:04.805Z,14.71
2022-10-18T17:40:08.239Z,14.44
2022-10-18T17:43:10.796Z,14.43
2022-10-18T17:46:14.265Z,14.50
2022-10-18T17:49:17.154Z,14.54
2022-10-18T17:52:19.471Z,14.32
2022-10-18T17:55:21.796Z,14.40
2022-10-18T17:58:24.243Z,14.35
2022-10-18T18:01:26.764Z,14.21
2022-10-18T18:04:29.224Z,14.23
2022-10-18T18:07:31.722Z,14.27
2022-10-18T18:10:35.055Z,14.20
2022-10-18T18:13:37.492Z,14.14
2022-10-18T18:16:43.002Z,14.09
2022-10-18T18:19:45.360Z,14.21
2022-10-18T18:22:47.786Z,14.09
2022-10-18T18:25:57.472Z,14.25
2022-10-18T18:29:00.290Z,14.16
2022-10-18T18:32:03.403Z,13.99
2022-10-18T18:35:06.083Z,14.03
2022-10-18T18:38:09.100Z,13.95
2022-10-18T18:41:17.559Z,13.80
2022-10-18T18:44:20.908Z,13.74
2022-10-18T18:47:23.494Z,13.55
2022-10-18T18:50:28.194Z,12.53
2022-10-18T18:53:31.102Z,11.03
2022-10-18T18:56:34.048Z,10.75
2022-10-18T18:59:36.492Z,10.64
2022-10-18T19:02:39.000Z,10.67
2022-10-18T19:05:41.420Z,10.77
2022-10-18T19:08:46.992Z,10.91
2022-10-18T19:11:52.344Z,10.86
2022-10-18T19:14:54.802Z,10.99
2022-10-18T19:17:57.262Z,10.91
2022-10-18T19:20:59.702Z,10.72
2022-10-18T19:24:02.708Z,10.43
2022-10-18T19:27:12.292Z,10.15
2022-10-18T19:30:14.836Z,10.02
2022-10-18T19:33:35.508Z,10.10
2022-10-18T19:36:46.279Z,10.34
2022-10-18T19:39:48.974Z,10.47
2022-10-18T19:42:51.373Z,10.55
2022-10-18T19:45:53.745Z,11.06
2022-10-18T19:48:56.100Z,11.54
2022-10-18T19:51:58.652Z,11.74
2022-10-18T19:55:01.049Z,11.65
2022-10-18T19:58:03.552Z,11.61
2022-10-18T20:01:06.455Z,11.13
2022-10-18T20:04:09.974Z,10.68
2022-10-18T20:07:12.354Z,10.06
2022-10-18T20:10:16.977Z,9.77
2022-10-18T20:13:20.025Z,9.75
2022-10-18T20:16:28.087Z,9.55
2022-10-18T20:19:31.527Z,8.97
2022-10-18T20:22:34.268Z,8.92
2022-10-18T20:25:36.853Z,9.27
2022-10-18T20:28:39.775Z,9.46
2022-10-18T20:31:42.160Z,9.69
2022-10-18T20:34:44.556Z,9.53
2022-10-18T20:37:47.397Z,9.69
2022-10-18T20:40:52.221Z,9.68
2022-10-18T20:43:59.947Z,9.76
2022-10-18T20:47:02.289Z,9.12
2022-10-18T20:50:05.128Z,9.01
2022-10-18T20:53:07.605Z,9.17
2022-10-18T20:56:12.773Z,9.09
2022-10-18T20:59:15.243Z,9.16
2022-10-18T21:02:17.615Z,9.13
2022-10-18T21:05:19.963Z,9.22
2022-10-18T21:08:22.384Z,9.26
2022-10-18T21:11:26.020Z,9.21
2022-10-18T21:14:28.448Z,9.17
2022-10-18T21:17:30.936Z,9.08
2022-10-18T21:20:34.660Z,8.92
2022-10-18T21:23:37.409Z,8.81
2022-10-18T21:26:40.383Z,9.06
2022-10-18T21:29:42.715Z,9.10
2022-10-18T21:32:45.125Z,9.25
2022-10-18T21:35:47.473Z,9.15
2022-10-18T21:38:49.864Z,9.02
2022-10-18T21:41:52.317Z,9.07
2022-10-18T21:44:54.725Z,9.17
2022-10-18T21:47:57.092Z,8.76
2022-10-18T21:51:07.901Z,8.23
2022-10-18T21:54:14.982Z,7.54
2022-10-18T21:57:17.339Z,7.82
2022-10-18T22:00:20.834Z,7.86
2022-10-18T22:03:23.388Z,7.75
2022-10-18T22:06:32.053Z,7.98
2022-10-18T22:09:34.587Z,7.99
2022-10-18T22:12:37.065Z,8.20
2022-10-18T22:15:39.465Z,7.78
2022-10-18T22:18:43.381Z,7.75
2022-10-18T22:21:45.891Z,7.88
2022-10-18T22:24:48.284Z,7.79
2022-10-18T22:27:50.769Z,7.90
2022-10-18T22:30:53.232Z,7.85
2022-10-18T22:33:58.494Z,8.16
2022-10-18T22:37:00.975Z,8.17
2022-10-18T22:40:04.320Z,8.19
2022-10-18T22:43:06.731Z,8.19
2022-10-18T22:46:12.206Z,8.18
2022-10-18T22:49:14.796Z,8.22
2022-10-18T22:52:17.272Z,8.19
2022-10-18T22:55:19.663Z,7.70
2022-10-18T22:58:22.242Z,7.63
2022-10-18T23:01:25.316Z,7.78
2022-10-18T23:04:27.962Z,7.52
2022-10-18T23:07:30.383Z,7.83
2022-10-18T23:10:38.206Z,7.82
2022-10-18T23:13:40.662Z,7.85
2022-10-18T23:16:43.382Z,7.74
2022-10-18T23:19:46.264Z,7.82
2022-10-18T23:22:48.707Z,7.67
2022-10-18T23:25:53.904Z,7.53
2022-10-18T23:28:57.314Z,7.34
2022-10-18T23:31:59.755Z,7.30
2022-10-18T23:35:02.158Z,7.42
2022-10-18T23:38:04.598Z,7.73
2022-10-18T23:41:10.151Z,7.90
2022-10-18T23:44:12.682Z,8.06
2022-10-18T23:47:15.576Z,8.14
2022-10-18T23:50:20.503Z,8.19
2022-10-18T23:53:23.285Z,8.17
2022-10-18T23:56:25.888Z,8.36
2022-10-18T23:59:28.313Z,8.24
